createdAt,value
2018-01-30T00:02:07.387Z,8.80
2018-01-30T00:04:34.900Z,8.80
2018-01-30T00:07:03.123Z,8.70
2018-01-30T00:09:30.575Z,8.70
2018-01-30T00:11:58.024Z,8.60
2018-01-30T00:14:25.488Z,8.50
2018-01-30T00:16:52.983Z,8.50
2018-01-30T00:19:20.425Z,8.40
2018-01-30T00:21:47.891Z,8.40
2018-01-30T00:24:16.114Z,8.20
2018-01-30T00:29:17.456Z,8.20
2018-01-30T00:31:44.902Z,8.20
2018-01-30T00:34:12.359Z,8.20
2018-01-30T00:36:39.795Z,8.20
2018-01-30T00:39:08.019Z,8.10
2018-01-30T00:41:35.519Z,8.10
2018-01-30T00:44:02.963Z,8.10
2018-01-30T00:46:30.409Z,8.10
2018-01-30T00:48:57.869Z,8.00
2018-01-30T00:51:25.290Z,8.10
2018-01-30T00:53:53.375Z,7.90
2018-01-30T00:56:20.846Z,7.90
2018-01-30T00:58:48.296Z,7.90
2018-01-30T01:01:15.754Z,7.90
2018-01-30T01:03:43.296Z,7.90
2018-01-30T01:06:10.741Z,7.90
2018-01-30T01:08:38.160Z,7.80
2018-01-30T01:11:06.410Z,7.60
2018-01-30T01:13:33.876Z,7.60
2018-01-30T01:16:01.316Z,7.60
2018-01-30T01:18:28.777Z,7.50
2018-01-30T01:20:56.229Z,7.50
2018-01-30T01:23:23.715Z,7.50
2018-01-30T01:25:51.157Z,7.40
2018-01-30T01:28:18.608Z,7.30
2018-01-30T01:30:46.070Z,7.30
2018-01-30T01:33:13.536Z,7.40
2018-01-30T01:35:42.477Z,7.20
2018-01-30T01:38:09.941Z,7.20
2018-01-30T01:40:37.533Z,7.20
2018-01-30T01:43:04.990Z,7.20
2018-01-30T01:45:32.426Z,7.20
2018-01-30T01:47:59.876Z,7.10
2018-01-30T01:50:27.311Z,7.20
2018-01-30T01:52:54.772Z,7.10
2018-01-30T01:55:22.220Z,7.10
2018-01-30T01:57:49.675Z,7.10
2018-01-30T02:00:17.154Z,7.00
2018-01-30T02:02:45.391Z,7.00
2018-01-30T02:05:12.851Z,6.90
2018-01-30T02:07:40.304Z,6.80
2018-01-30T02:10:07.773Z,6.90
2018-01-30T02:12:35.230Z,6.90
2018-01-30T02:15:02.718Z,6.90
2018-01-30T02:17:30.142Z,6.80
2018-01-30T02:19:58.164Z,6.80
2018-01-30T02:22:25.618Z,6.80
2018-01-30T02:24:53.060Z,6.80
2018-01-30T02:27:20.503Z,6.80
2018-01-30T02:29:47.951Z,6.70
2018-01-30T02:32:15.428Z,6.70
2018-01-30T02:34:42.860Z,6.70
2018-01-30T02:37:10.322Z,6.70
2018-01-30T02:39:37.863Z,6.70
2018-01-30T02:42:05.332Z,6.70
2018-01-30T02:44:32.766Z,6.70
2018-01-30T02:47:00.219Z,6.70
2018-01-30T02:49:27.676Z,6.70
2018-01-30T02:51:55.169Z,6.60
2018-01-30T02:54:22.627Z,6.60
2018-01-30T02:56:50.081Z,6.60
2018-01-30T02:59:17.516Z,6.60
2018-01-30T03:01:44.964Z,6.60
2018-01-30T03:04:12.395Z,6.60
2018-01-30T03:06:39.859Z,6.60
2018-01-30T03:09:07.294Z,6.50
2018-01-30T03:11:35.516Z,6.50
2018-01-30T03:14:02.976Z,6.50
2018-01-30T03:16:30.407Z,6.50
2018-01-30T03:18:57.889Z,6.40
2018-01-30T03:21:25.343Z,6.50
2018-01-30T03:23:52.794Z,6.40
2018-01-30T03:26:20.237Z,6.40
2018-01-30T03:28:47.685Z,6.40
2018-01-30T03:31:15.149Z,6.40
2018-01-30T03:33:42.611Z,6.30
2018-01-30T03:36:10.047Z,6.20
2018-01-30T03:38:37.474Z,6.30
2018-01-30T03:41:04.941Z,6.20
2018-01-30T03:43:33.147Z,6.20
2018-01-30T03:46:00.603Z,6.20
2018-01-30T03:48:28.034Z,6.10
2018-01-30T03:50:55.553Z,6.00
2018-01-30T03:53:23.028Z,6.10
2018-01-30T03:55:51.175Z,6.10
2018-01-30T03:58:18.619Z,6.00
2018-01-30T04:00:46.166Z,5.90
2018-01-30T04:03:13.942Z,5.90
2018-01-30T04:05:41.601Z,6.00
2018-01-30T04:08:09.511Z,6.00
2018-01-30T04:10:37.041Z,6.00
2018-01-30T04:13:04.587Z,6.00
2018-01-30T04:15:32.045Z,6.10
2018-01-30T04:17:59.643Z,6.10
2018-01-30T04:20:27.107Z,6.10
2018-01-30T04:22:54.595Z,6.00
2018-01-30T04:25:22.078Z,6.10
2018-01-30T04:27:49.963Z,6.10
2018-01-30T04:30:17.440Z,6.10
2018-01-30T04:32:44.962Z,6.10
2018-01-30T04:35:12.435Z,5.90
2018-01-30T04:37:39.970Z,5.80
2018-01-30T04:40:07.489Z,5.70
2018-01-30T04:42:35.052Z,5.80
2018-01-30T04:45:02.540Z,5.80
2018-01-30T04:47:30.153Z,5.80
2018-01-30T04:49:57.665Z,5.80
2018-01-30T04:52:25.146Z,5.70
2018-01-30T04:54:53.728Z,5.70
2018-01-30T04:57:21.208Z,5.70
2018-01-30T04:59:48.762Z,5.80
2018-01-30T05:02:16.289Z,5.70
2018-01-30T05:04:43.776Z,5.70
2018-01-30T05:07:11.363Z,5.70
2018-01-30T05:09:39.605Z,5.70
2018-01-30T05:12:07.259Z,5.60
2018-01-30T05:14:34.802Z,5.70
2018-01-30T05:17:02.281Z,5.70
2018-01-30T05:19:29.752Z,5.70
2018-01-30T05:21:57.275Z,5.70
2018-01-30T05:24:24.821Z,5.70
2018-01-30T05:26:52.387Z,5.70
2018-01-30T05:29:19.866Z,5.60
2018-01-30T05:31:47.405Z,5.50
2018-01-30T05:34:14.911Z,5.50
2018-01-30T05:36:42.455Z,5.60
2018-01-30T05:39:10.730Z,5.50
2018-01-30T05:41:38.290Z,5.50
2018-01-30T05:44:05.834Z,5.50
2018-01-30T05:46:33.323Z,5.40
2018-01-30T05:49:00.880Z,5.60
2018-01-30T05:51:28.407Z,5.60
2018-01-30T05:53:56.016Z,5.60
2018-01-30T05:56:23.601Z,5.50
2018-01-30T05:58:51.139Z,5.60
2018-01-30T06:01:18.697Z,5.50
2018-01-30T06:03:46.263Z,5.40
2018-01-30T06:06:13.827Z,5.40
2018-01-30T06:08:41.500Z,5.50
2018-01-30T06:11:08.999Z,5.50
2018-01-30T06:13:37.406Z,5.50
2018-01-30T06:16:04.886Z,5.50
2018-01-30T06:18:32.379Z,5.40
2018-01-30T06:20:59.914Z,5.50
2018-01-30T06:23:27.417Z,5.60
2018-01-30T06:25:54.916Z,5.70
2018-01-30T06:28:22.427Z,5.60
2018-01-30T06:30:49.987Z,5.70
2018-01-30T06:33:18.073Z,5.50
2018-01-30T06:35:45.622Z,5.50
2018-01-30T06:38:13.149Z,5.50
2018-01-30T06:40:40.723Z,5.50
2018-01-30T06:43:08.243Z,5.50
2018-01-30T06:45:35.759Z,5.50
2018-01-30T06:48:03.456Z,5.40
2018-01-30T06:50:31.348Z,5.50
2018-01-30T06:52:58.891Z,5.50
2018-01-30T06:55:26.334Z,5.50
2018-01-30T06:57:54.162Z,5.40
2018-01-30T07:00:21.685Z,5.50
2018-01-30T07:02:49.168Z,5.40
2018-01-30T07:05:16.621Z,5.50
2018-01-30T07:07:44.177Z,5.40
2018-01-30T07:10:11.668Z,5.50
2018-01-30T07:12:39.127Z,5.50
2018-01-30T07:15:06.588Z,5.60
2018-01-30T07:17:34.987Z,5.50
2018-01-30T07:20:02.600Z,5.50
2018-01-30T07:22:30.249Z,5.50
2018-01-30T07:24:58.591Z,5.70
2018-01-30T07:27:26.203Z,5.70
2018-01-30T07:29:59.536Z,5.70
2018-01-30T07:32:27.060Z,5.70
2018-01-30T07:34:54.633Z,5.60
2018-01-30T07:40:02.555Z,5.60
2018-01-30T07:42:30.020Z,5.60
2018-01-30T07:44:57.504Z,5.60
2018-01-30T07:47:24.980Z,5.70
2018-01-30T07:49:52.430Z,5.70
2018-01-30T07:52:20.335Z,5.70
2018-01-30T07:54:47.843Z,5.80
2018-01-30T07:57:15.717Z,5.80
2018-01-30T07:59:43.784Z,5.80
2018-01-30T08:02:11.240Z,5.80
2018-01-30T08:04:38.694Z,5.90
2018-01-30T08:07:06.194Z,5.90
2018-01-30T08:09:33.681Z,5.90
2018-01-30T08:12:01.173Z,6.10
2018-01-30T08:14:28.612Z,6.10
2018-01-30T08:16:56.095Z,6.20
2018-01-30T08:19:23.576Z,6.30
2018-01-30T08:21:52.272Z,6.40
2018-01-30T08:24:19.698Z,6.60
2018-01-30T08:26:47.164Z,6.70
2018-01-30T08:29:14.598Z,6.70
2018-01-30T08:31:42.665Z,6.80
2018-01-30T08:34:10.124Z,7.00
2018-01-30T08:36:37.613Z,7.20
2018-01-30T08:39:05.284Z,7.20
2018-01-30T08:41:33.476Z,7.10
2018-01-30T08:44:01.712Z,7.20
2018-01-30T08:46:29.174Z,7.20
2018-01-30T08:48:56.665Z,7.20
2018-01-30T08:51:24.894Z,7.20
2018-01-30T08:53:53.079Z,7.20
2018-01-30T08:56:20.567Z,7.70
2018-01-30T08:58:48.794Z,7.90
2018-01-30T09:01:17.042Z,8.00
2018-01-30T09:03:44.508Z,8.00
2018-01-30T09:06:11.983Z,8.10
2018-01-30T09:08:39.441Z,8.50
2018-01-30T09:11:06.915Z,8.40
2018-01-30T09:13:34.351Z,8.50
2018-01-30T09:16:01.799Z,9.10
2018-01-30T09:18:29.250Z,9.80
2018-01-30T09:20:57.351Z,10.20
2018-01-30T09:23:24.794Z,10.80
2018-01-30T09:25:52.858Z,11.20
2018-01-30T09:28:20.300Z,11.60
2018-01-30T09:30:47.783Z,12.00
2018-01-30T09:33:15.251Z,12.30
2018-01-30T09:35:42.723Z,12.10
2018-01-30T09:38:10.250Z,11.30
2018-01-30T09:40:37.682Z,10.90
2018-01-30T09:43:05.147Z,10.70
2018-01-30T09:45:32.602Z,10.30
2018-01-30T09:48:00.091Z,10.70
2018-01-30T09:50:28.336Z,12.10
2018-01-30T09:52:55.797Z,12.10
2018-01-30T09:55:23.261Z,13.10
2018-01-30T09:57:50.723Z,13.10
2018-01-30T10:00:18.212Z,13.40
2018-01-30T10:02:45.652Z,13.90
2018-01-30T10:05:13.872Z,14.80
2018-01-30T10:07:41.317Z,14.70
2018-01-30T10:10:08.797Z,15.20
2018-01-30T10:12:36.242Z,15.00
2018-01-30T10:15:03.735Z,14.90
2018-01-30T10:17:31.202Z,15.50
2018-01-30T10:19:59.456Z,15.20
2018-01-30T10:22:26.887Z,15.20
2018-01-30T10:24:54.370Z,15.60
2018-01-30T10:27:21.851Z,16.00
2018-01-30T10:29:50.081Z,15.50
2018-01-30T10:32:17.549Z,15.50
2018-01-30T10:34:44.990Z,15.70
2018-01-30T10:37:12.451Z,15.60
2018-01-30T10:39:39.936Z,15.90
2018-01-30T10:42:07.406Z,15.70
2018-01-30T10:44:34.845Z,15.90
2018-01-30T10:47:02.306Z,15.90
2018-01-30T10:49:29.763Z,15.90
2018-01-30T10:51:57.237Z,15.20
2018-01-30T10:54:25.452Z,15.40
2018-01-30T10:56:52.939Z,15.40
2018-01-30T10:59:20.389Z,14.90
2018-01-30T11:01:47.914Z,15.10
2018-01-30T11:04:15.415Z,15.00
2018-01-30T11:06:43.634Z,15.20
2018-01-30T11:09:11.150Z,15.20
2018-01-30T11:11:38.602Z,15.30
2018-01-30T11:14:06.094Z,15.20
2018-01-30T11:16:33.542Z,15.30
2018-01-30T11:19:01.010Z,14.80
2018-01-30T11:21:28.449Z,15.50
2018-01-30T11:23:55.930Z,15.60
2018-01-30T11:26:23.475Z,15.40
2018-01-30T11:28:50.937Z,15.10
2018-01-30T11:31:18.415Z,15.40
2018-01-30T11:33:45.894Z,15.40
2018-01-30T11:36:13.332Z,15.10
2018-01-30T11:38:40.806Z,15.00
2018-01-30T11:41:09.039Z,14.90
2018-01-30T11:43:36.514Z,14.90
2018-01-30T11:46:04.020Z,15.10
2018-01-30T11:48:31.455Z,14.90
2018-01-30T11:50:58.945Z,14.50
2018-01-30T11:53:27.110Z,13.40
2018-01-30T11:55:59.789Z,13.90
2018-01-30T11:58:27.310Z,14.00
2018-01-30T12:00:54.803Z,13.80
2018-01-30T12:03:22.302Z,13.10
2018-01-30T12:05:50.534Z,12.80
2018-01-30T12:08:17.986Z,12.80
2018-01-30T12:10:45.445Z,13.70
2018-01-30T12:13:12.883Z,14.20
2018-01-30T12:15:41.047Z,14.60
2018-01-30T12:18:08.502Z,14.40
2018-01-30T12:20:35.989Z,14.10
2018-01-30T12:23:03.495Z,14.60
2018-01-30T12:25:30.952Z,15.40
2018-01-30T12:27:58.467Z,14.30
2018-01-30T12:30:25.979Z,13.30
2018-01-30T12:32:53.554Z,12.40
2018-01-30T12:35:21.021Z,12.50
2018-01-30T12:37:49.264Z,13.20
2018-01-30T12:40:16.728Z,13.10
2018-01-30T12:42:44.262Z,14.20
2018-01-30T12:45:12.530Z,14.10
2018-01-30T12:47:40.088Z,14.10
2018-01-30T12:50:07.562Z,14.00
2018-01-30T12:52:35.082Z,14.30
2018-01-30T12:55:03.314Z,14.30
2018-01-30T12:57:30.778Z,14.30
2018-01-30T12:59:58.282Z,14.60
2018-01-30T13:02:25.771Z,14.50
2018-01-30T13:04:53.207Z,13.80
2018-01-30T13:07:20.658Z,13.10
2018-01-30T13:09:48.910Z,14.40
2018-01-30T13:12:16.378Z,14.40
2018-01-30T13:14:43.928Z,14.00
2018-01-30T13:17:11.407Z,14.30
2018-01-30T13:19:38.869Z,14.20
2018-01-30T13:22:06.403Z,14.60
2018-01-30T13:24:33.876Z,14.80
2018-01-30T13:27:01.401Z,14.70
2018-01-30T13:29:28.877Z,14.40
2018-01-30T13:31:56.486Z,13.90
2018-01-30T13:34:23.964Z,14.00
2018-01-30T13:36:51.449Z,13.70
2018-01-30T13:39:18.910Z,13.10
2018-01-30T13:41:46.390Z,12.70
2018-01-30T13:44:13.866Z,12.00
2018-01-30T13:46:41.425Z,11.40
2018-01-30T13:49:08.923Z,11.20
2018-01-30T13:51:36.405Z,11.50
2018-01-30T13:54:03.891Z,12.20
2018-01-30T13:56:31.432Z,13.30
2018-01-30T13:58:58.898Z,13.70
2018-01-30T14:01:26.373Z,14.00
2018-01-30T14:03:54.453Z,13.70
2018-01-30T14:06:21.901Z,14.00
2018-01-30T14:08:50.141Z,14.70
2018-01-30T14:11:17.627Z,14.70
2018-01-30T14:13:46.021Z,14.80
2018-01-30T14:16:16.837Z,14.00
2018-01-30T14:18:44.444Z,13.40
2018-01-30T14:21:11.980Z,13.00
2018-01-30T14:23:39.441Z,13.20
2018-01-30T14:26:07.679Z,13.40
2018-01-30T14:28:35.143Z,13.40
2018-01-30T14:31:02.629Z,13.30
2018-01-30T14:33:30.134Z,13.20
2018-01-30T14:35:57.619Z,12.70
2018-01-30T14:38:25.085Z,12.10
2018-01-30T14:40:52.553Z,11.60
2018-01-30T14:43:23.743Z,11.40
2018-01-30T14:45:51.987Z,11.10
2018-01-30T14:48:19.451Z,11.10
2018-01-30T14:50:46.928Z,11.20
2018-01-30T14:53:14.396Z,11.10
2018-01-30T14:55:41.846Z,11.10
2018-01-30T14:58:10.082Z,10.90
2018-01-30T15:00:37.530Z,10.90
2018-01-30T15:03:05.876Z,10.80
2018-01-30T15:05:33.337Z,10.60
2018-01-30T15:08:00.825Z,10.70
2018-01-30T15:10:28.279Z,10.60
2018-01-30T15:12:55.767Z,10.50
2018-01-30T15:15:23.382Z,10.50
2018-01-30T15:17:51.623Z,10.30
2018-01-30T15:20:19.080Z,10.30
2018-01-30T15:22:46.546Z,10.30
2018-01-30T15:25:14.007Z,10.20
2018-01-30T15:27:42.264Z,10.30
2018-01-30T15:30:09.715Z,10.30
2018-01-30T15:32:37.182Z,10.40
2018-01-30T15:35:04.669Z,10.50
2018-01-30T15:37:32.149Z,10.50
2018-01-30T15:39:59.654Z,10.40
2018-01-30T15:42:27.100Z,10.30
2018-01-30T15:44:54.605Z,10.00
2018-01-30T15:47:22.139Z,10.00
2018-01-30T15:49:51.503Z,10.00
2018-01-30T15:52:20.454Z,10.00
2018-01-30T15:54:50.603Z,9.80
2018-01-30T15:57:18.408Z,9.80
2018-01-30T15:59:45.882Z,9.80
2018-01-30T16:02:13.397Z,9.80
2018-01-30T16:04:43.437Z,9.80
2018-01-30T16:07:13.679Z,9.70
2018-01-30T16:09:42.525Z,9.70
2018-01-30T16:12:11.937Z,9.60
2018-01-30T16:14:41.587Z,9.50
2018-01-30T16:17:12.541Z,9.50
2018-01-30T16:19:43.059Z,9.40
2018-01-30T16:22:12.424Z,9.40
2018-01-30T16:24:39.944Z,9.20
2018-01-30T16:27:08.582Z,9.10
2018-01-30T16:29:37.503Z,9.10
2018-01-30T16:32:06.494Z,8.90
2018-01-30T16:34:33.930Z,9.00
2018-01-30T16:37:01.400Z,9.00
2018-01-30T16:39:28.879Z,9.00
2018-01-30T16:41:56.318Z,9.00
2018-01-30T16:44:24.559Z,9.00
2018-01-30T16:46:52.008Z,9.00
2018-01-30T16:49:20.238Z,8.90
2018-01-30T16:51:47.707Z,8.90
2018-01-30T16:54:15.228Z,8.90
2018-01-30T16:56:42.704Z,8.80
2018-01-30T16:59:10.182Z,8.90
2018-01-30T17:01:37.632Z,8.80
2018-01-30T17:04:05.760Z,8.70
2018-01-30T17:06:33.224Z,8.60
2018-01-30T17:09:00.688Z,8.70
2018-01-30T17:11:28.171Z,8.60
2018-01-30T17:13:56.316Z,8.50
2018-01-30T17:16:23.828Z,8.50
2018-01-30T17:18:51.272Z,8.50
2018-01-30T17:21:18.745Z,8.40
2018-01-30T17:23:46.198Z,8.40
2018-01-30T17:26:17.472Z,8.40
2018-01-30T17:28:45.681Z,8.30
2018-01-30T17:31:13.198Z,8.30
2018-01-30T17:33:40.781Z,8.30
2018-01-30T17:36:08.989Z,8.30
2018-01-30T17:38:36.452Z,8.30
2018-01-30T17:41:03.991Z,8.30
2018-01-30T17:43:31.459Z,8.30
2018-01-30T17:45:58.956Z,8.20
2018-01-30T17:48:26.362Z,8.20
2018-01-30T17:50:53.831Z,8.10
2018-01-30T17:53:21.332Z,8.10
2018-01-30T17:55:49.561Z,8.00
2018-01-30T17:58:17.011Z,8.00
2018-01-30T18:00:44.480Z,8.00
2018-01-30T18:03:11.936Z,8.00
2018-01-30T18:05:39.395Z,7.90
2018-01-30T18:08:06.863Z,7.90
2018-01-30T18:10:34.320Z,7.90
2018-01-30T18:13:01.794Z,7.90
2018-01-30T18:15:29.244Z,7.80
2018-01-30T18:17:56.692Z,7.80
2018-01-30T18:20:24.179Z,7.80
2018-01-30T18:22:51.579Z,7.80
2018-01-30T18:25:19.065Z,7.70
2018-01-30T18:27:46.511Z,7.70
2018-01-30T18:30:13.977Z,7.70
2018-01-30T18:32:41.401Z,7.70
2018-01-30T18:35:09.624Z,7.70
2018-01-30T18:37:37.839Z,7.80
2018-01-30T18:40:05.303Z,7.70
2018-01-30T18:42:32.754Z,7.70
2018-01-30T18:45:00.239Z,7.70
2018-01-30T18:47:28.476Z,7.50
2018-01-30T18:49:56.554Z,7.50
2018-01-30T18:52:24.596Z,7.50
2018-01-30T18:54:52.841Z,7.50
2018-01-30T18:57:20.274Z,7.40
2018-01-30T18:59:47.730Z,7.40
2018-01-30T19:02:15.256Z,7.40
2018-01-30T19:04:42.676Z,7.30
2018-01-30T19:07:10.904Z,7.20
2018-01-30T19:09:38.363Z,7.20
2018-01-30T19:12:05.907Z,7.20
2018-01-30T19:14:33.807Z,7.20
2018-01-30T19:17:01.288Z,7.20
2018-01-30T19:19:28.709Z,7.20
2018-01-30T19:21:56.990Z,7.20
2018-01-30T19:24:24.453Z,7.20
2018-01-30T19:26:51.932Z,7.10
2018-01-30T19:29:20.185Z,7.10
2018-01-30T19:31:47.611Z,7.10
2018-01-30T19:34:15.083Z,7.20
2018-01-30T19:36:42.519Z,7.20
2018-01-30T19:39:09.972Z,7.20
2018-01-30T19:41:37.419Z,7.30
2018-01-30T19:44:04.875Z,7.20
2018-01-30T19:46:32.351Z,7.20
2018-01-30T19:48:59.886Z,7.10
2018-01-30T19:51:27.352Z,7.00
2018-01-30T19:53:54.980Z,7.00
2018-01-30T19:56:22.479Z,7.10
2018-01-30T19:58:49.966Z,7.10
2018-01-30T20:01:17.439Z,7.10
2018-01-30T20:03:45.646Z,7.20
2018-01-30T20:06:13.110Z,7.20
2018-01-30T20:08:40.592Z,7.20
2018-01-30T20:11:08.075Z,7.20
2018-01-30T20:13:35.594Z,7.30
2018-01-30T20:16:03.052Z,7.30
2018-01-30T20:18:30.518Z,7.30
2018-01-30T20:20:57.980Z,7.20
2018-01-30T20:23:25.418Z,7.30
2018-01-30T20:25:52.898Z,7.30
2018-01-30T20:28:20.350Z,7.20
2018-01-30T20:30:47.819Z,7.30
2018-01-30T20:33:15.277Z,7.30
2018-01-30T20:35:42.728Z,7.30
2018-01-30T20:38:10.171Z,7.40
2018-01-30T20:40:37.625Z,7.50
2018-01-30T20:43:05.404Z,7.60
2018-01-30T20:45:32.852Z,7.50
2018-01-30T20:48:00.340Z,7.50
2018-01-30T20:50:28.574Z,7.70
2018-01-30T20:52:56.041Z,7.70
2018-01-30T20:55:23.524Z,7.70
2018-01-30T20:57:51.736Z,7.70
2018-01-30T21:00:20.035Z,7.70
2018-01-30T21:02:47.495Z,7.70
2018-01-30T21:05:14.948Z,7.70
2018-01-30T21:07:42.430Z,7.70
2018-01-30T21:10:09.906Z,7.70
2018-01-30T21:12:38.129Z,7.70
2018-01-30T21:15:05.605Z,7.70
2018-01-30T21:17:33.056Z,7.80
2018-01-30T21:20:00.538Z,7.70
2018-01-30T21:22:28.813Z,7.80
2018-01-30T21:24:56.255Z,7.70
2018-01-30T21:27:23.709Z,7.70
2018-01-30T21:29:51.179Z,7.80
2018-01-30T21:32:19.395Z,7.90
2018-01-30T21:34:46.843Z,7.90
2018-01-30T21:37:14.294Z,7.80
2018-01-30T21:39:41.860Z,7.90
2018-01-30T21:42:09.304Z,8.00
2018-01-30T21:44:36.756Z,8.00
2018-01-30T21:47:05.061Z,7.90
2018-01-30T21:49:32.539Z,8.00
2018-01-30T21:52:00.182Z,8.00
2018-01-30T21:54:28.391Z,8.00
2018-01-30T21:56:55.825Z,8.00
2018-01-30T21:59:23.267Z,8.00
2018-01-30T22:01:50.741Z,8.00
2018-01-30T22:04:18.270Z,8.00
2018-01-30T22:06:45.760Z,7.90
2018-01-30T22:09:13.179Z,7.90
2018-01-30T22:11:40.646Z,8.00
2018-01-30T22:14:08.131Z,7.90
2018-01-30T22:16:36.400Z,7.90
2018-01-30T22:19:04.071Z,7.90
2018-01-30T22:21:31.524Z,7.90
2018-01-30T22:23:59.028Z,7.80
2018-01-30T22:26:26.481Z,7.80
2018-01-30T22:28:53.960Z,7.80
2018-01-30T22:31:21.398Z,7.60
2018-01-30T22:33:48.859Z,7.70
2018-01-30T22:36:16.307Z,7.70
2018-01-30T22:38:43.822Z,7.60
2018-01-30T22:41:11.316Z,7.60
2018-01-30T22:43:38.911Z,7.70
2018-01-30T22:46:06.403Z,7.60
